Meteo Giornale » Osservazioni meteo Stati Uniti (USA) » Frederick
ore: 12:53 - Osservazioni Meteo Frederick
Lat. 34° 20' N Lon. 98° 58' W Alt. 382 metri s.l.m.
37 °C
Molto Nuvoloso
Temp. 24 Ore
24 °C
40 °C
Sud
20.3 Km/h
Dew point 17 °C
Umidità 30 %
Visibilità 10 Km
Il sole sorge alle ore 07:08
Il sole tramonta alle ore 20:03
| Data e Ora | Cielo e Fenomeni | T °C | DP °C | Um. % | Pres. hPa | Vis. km | Vento km/h | |
|---|---|---|---|---|---|---|---|---|
| Oggi h: 12:53 | Molto Nuvoloso | 37 | 17 | 30 | 1015 | 10 | S 20.3 | |
| Oggi h: 11:53 | Sereno | 36 | 18 | 34 | 1016 | 10 | S/SO 18.5 | |
| Oggi h: 10:53 | Sereno | 34 | 19 | 41 | 1016 | 10 | S/SO 25.9 | |
| Oggi h: 09:53 | Sereno | 32 | 19 | 46 | 1016 | 10 | S/SO 24 | |
| Oggi h: 08:53 | Sereno | 29 | 18 | 51 | 1016 | 10 | S/SO 13 | |
| Oggi h: 07:53 | Sereno | 24 | 17 | 64 | 1015 | 10 | SE 13 | |
| Oggi h: 06:53 | Sereno | 25 | 16 | 57 | 1014 | 10 | N 9.3 | |
| Oggi h: 05:53 | Sereno | 26 | 15 | 50 | 1014 | 10 | S/SE 9.3 | |
| Oggi h: 04:53 | Sereno | 27 | 15 | 47 | 1014 | 10 | S 13 | |
| Oggi h: 03:53 | Sereno | 27 | 15 | 47 | 1013 | 10 | S 16.7 | |
| Oggi h: 02:53 | Sereno | 27 | 13 | 42 | 1013 | 10 | S 13 | |
| Oggi h: 01:53 | Sereno | 28 | 13 | 39 | 1012 | 10 | S/SE 14.8 | |
| Oggi h: 00:53 | Sereno | 29 | 12 | 35 | 1012 | 10 | S/SE 24 | |
| Ieri h: 23:53 | Sereno | 30 | 12 | 33 | 1012 | 10 | S/SE 24 | |
| Ieri h: 22:53 | Sereno | 29 | 13 | 37 | 1012 | 10 | SE 22.2 | |
| Ieri h: 21:53 | Sereno | 31 | 13 | 33 | 1011 | 10 | SE 27.8 | |
| Ieri h: 20:53 | Sereno | 32 | 13 | 31 | 1011 | 10 | SE 25.9 | |
| Ieri h: 19:53 | Sereno | 36 | 13 | 25 | 1010 | 10 | S/SE 18.5 | |
| Ieri h: 18:53 | Sereno | 38 | 13 | 22 | 1010 | 10 | S/SE 24 | |
| Ieri h: 17:53 | Sereno | 39 | 13 | 21 | 1010 | 10 | S/SE 25.9 | |
| Ieri h: 16:53 | Sereno | 40 | 14 | 21 | 1010 | 10 | S 24 | |
| Ieri h: 15:53 | Sereno | 40 | 15 | 23 | 1011 | 10 | S/SO 22.2 | |
| Ieri h: 14:53 | Poco Nuvoloso | 38 | 15 | 25 | 1012 | 10 | SO 16.7 | |
| Ieri h: 13:53 | Poco Nuvoloso | 39 | 16 | 26 | 1013 | 10 | S/SO 18.5 | |



